sensor_id;sensor_type;location;lat;lon;timestamp;pressure;altitude;pressure_sealevel;temperature;humidity
7730;BME280;3908;52.310;7.230;2022-11-15T00:02:26;51338.72;;;-145.83;100.00
7730;BME280;3908;52.310;7.230;2022-11-15T00:05:13;51407.19;;;-145.83;100.00
7730;BME280;3908;52.310;7.230;2022-11-15T00:08:01;51391.53;;;-145.83;100.00
7730;BME280;3908;52.310;7.230;2022-11-15T00:10:55;51352.41;;;-145.83;100.00
7730;BME280;3908;52.310;7.230;2022-11-15T00:13:42;51377.84;;;-145.83;100.00
7730;BME280;3908;52.310;7.230;2022-11-15T00:16:30;51409.16;;;-145.83;100.00
7730;BME280;3908;52.310;7.230;2022-11-15T00:19:17;51413.06;;;-145.83;100.00
7730;BME280;3908;52.310;7.230;2022-11-15T00:22:04;51397.41;;;-145.83;100.00
7730;BME280;3908;52.310;7.230;2022-11-15T00:24:52;51385.66;;;-145.83;100.00
7730;BME280;3908;52.310;7.230;2022-11-15T00:27:39;51411.09;;;-145.83;100.00
7730;BME280;3908;52.310;7.230;2022-11-15T00:30:27;51375.88;;;-145.83;100.00
7730;BME280;3908;52.310;7.230;2022-11-15T00:33:14;51405.22;;;-145.83;100.00
7730;BME280;3908;52.310;7.230;2022-11-15T00:36:01;51387.63;;;-145.83;100.00
7730;BME280;3908;52.310;7.230;2022-11-15T00:38:49;51383.72;;;-145.83;100.00
7730;BME280;3908;52.310;7.230;2022-11-15T00:41:38;51379.81;;;-145.83;100.00
7730;BME280;3908;52.310;7.230;2022-11-15T00:44:25;51430.66;;;-145.83;100.00
7730;BME280;3908;52.310;7.230;2022-11-15T00:47:12;51430.66;;;-145.83;100.00
7730;BME280;3908;52.310;7.230;2022-11-15T00:49:59;51407.19;;;-145.83;100.00
7730;BME280;3908;52.310;7.230;2022-11-15T00:52:46;51375.88;;;-145.83;100.00
7730;BME280;3908;52.310;7.230;2022-11-15T00:55:34;51422.84;;;-145.83;100.00
7730;BME280;3908;52.310;7.230;2022-11-15T00:58:22;51401.31;;;-145.83;100.00
7730;BME280;3908;52.310;7.230;2022-11-15T01:01:11;51424.78;;;-145.83;100.00
7730;BME280;3908;52.310;7.230;2022-11-15T01:03:59;51407.19;;;-145.83;100.00
7730;BME280;3908;52.310;7.230;2022-11-15T01:06:46;51407.19;;;-145.83;100.00
7730;BME280;3908;52.310;7.230;2022-11-15T01:09:33;51428.72;;;-145.83;100.00
7730;BME280;3908;52.310;7.230;2022-11-15T01:12:20;51436.53;;;-145.83;100.00
7730;BME280;3908;52.310;7.230;2022-11-15T01:15:09;51428.72;;;-145.83;100.00
7730;BME280;3908;52.310;7.230;2022-11-15T01:17:56;51434.56;;;-145.83;100.00
7730;BME280;3908;52.310;7.230;2022-11-15T01:20:43;51385.66;;;-145.83;100.00
7730;BME280;3908;52.310;7.230;2022-11-15T01:23:30;51416.97;;;-145.83;100.00
7730;BME280;3908;52.310;7.230;2022-11-15T01:26:17;51426.75;;;-145.83;100.00
7730;BME280;3908;52.310;7.230;2022-11-15T01:29:04;51352.41;;;-145.83;100.00
7730;BME280;3908;52.310;7.230;2022-11-15T01:31:54;51401.31;;;-145.83;100.00
7730;BME280;3908;52.310;7.230;2022-11-15T01:34:40;51393.50;;;-145.83;100.00
7730;BME280;3908;52.310;7.230;2022-11-15T01:37:27;51428.72;;;-145.83;100.00
7730;BME280;3908;52.310;7.230;2022-11-15T01:40:15;51415.00;;;-145.83;100.00
7730;BME280;3908;52.310;7.230;2022-11-15T01:43:20;51415.00;;;-145.83;100.00
7730;BME280;3908;52.310;7.230;2022-11-15T01:46:20;51379.81;;;-145.83;100.00
7730;BME280;3908;52.310;7.230;2022-11-15T01:49:14;51413.06;;;-145.83;100.00
7730;BME280;3908;52.310;7.230;2022-11-15T01:52:05;51438.50;;;-145.83;100.00
7730;BME280;3908;52.310;7.230;2022-11-15T01:54:59;51391.53;;;-145.83;100.00
7730;BME280;3908;52.310;7.230;2022-11-15T01:57:50;51391.53;;;-145.83;100.00
7730;BME280;3908;52.310;7.230;2022-11-15T02:00:38;51446.31;;;-145.83;100.00
7730;BME280;3908;52.310;7.230;2022-11-15T02:03:36;51434.56;;;-145.83;100.00
7730;BME280;3908;52.310;7.230;2022-11-15T02:06:27;51399.38;;;-145.83;100.00
7730;BME280;3908;52.310;7.230;2022-11-15T02:09:14;51420.88;;;-145.83;100.00
7730;BME280;3908;52.310;7.230;2022-11-15T02:12:02;51411.09;;;-145.83;100.00
7730;BME280;3908;52.310;7.230;2022-11-15T02:14:52;51405.22;;;-145.83;100.00
7730;BME280;3908;52.310;7.230;2022-11-15T02:17:53;51428.72;;;-145.83;100.00
7730;BME280;3908;52.310;7.230;2022-11-15T02:20:58;51477.63;;;-145.83;100.00
7730;BME280;3908;52.310;7.230;2022-11-15T02:24:25;51405.22;;;-145.83;100.00
7730;BME280;3908;52.310;7.230;2022-11-15T02:27:52;51418.94;;;-145.83;100.00
7730;BME280;3908;52.310;7.230;2022-11-15T02:30:44;51366.09;;;-145.83;100.00
7730;BME280;3908;52.310;7.230;2022-11-15T02:33:36;51424.78;;;-145.83;100.00
7730;BME280;3908;52.310;7.230;2022-11-15T02:36:36;51436.53;;;-145.83;100.00
7730;BME280;3908;52.310;7.230;2022-11-15T02:39:32;51450.22;;;-145.83;100.00
7730;BME280;3908;52.310;7.230;2022-11-15T02:42:24;51424.78;;;-145.83;100.00
7730;BME280;3908;52.310;7.230;2022-11-15T02:45:33;51436.53;;;-145.83;100.00
7730;BME280;3908;52.310;7.230;2022-11-15T02:48:24;51420.88;;;-145.83;100.00
7730;BME280;3908;52.310;7.230;2022-11-15T02:51:13;51416.97;;;-145.83;100.00
7730;BME280;3908;52.310;7.230;2022-11-15T02:54:00;51364.16;;;-145.83;100.00
7730;BME280;3908;52.310;7.230;2022-11-15T02:56:49;51399.38;;;-145.83;100.00
7730;BME280;3908;52.310;7.230;2022-11-15T03:00:02;51434.56;;;-145.83;100.00
7730;BME280;3908;52.310;7.230;2022-11-15T03:03:21;51440.44;;;-145.83;100.00
7730;BME280;3908;52.310;7.230;2022-11-15T03:06:22;51432.63;;;-145.83;100.00
7730;BME280;3908;52.310;7.230;2022-11-15T03:09:17;51422.84;;;-145.83;100.00
7730;BME280;3908;52.310;7.230;2022-11-15T03:12:16;51416.97;;;-145.83;100.00
7730;BME280;3908;52.310;7.230;2022-11-15T03:15:12;51446.31;;;-145.83;100.00
7730;BME280;3908;52.310;7.230;2022-11-15T03:18:07;51458.06;;;-145.83;100.00
7730;BME280;3908;52.310;7.230;2022-11-15T03:20:58;51420.88;;;-145.83;100.00
7730;BME280;3908;52.310;7.230;2022-11-15T03:23:50;51391.53;;;-145.83;100.00
7730;BME280;3908;52.310;7.230;2022-11-15T03:26:40;51434.56;;;-145.83;100.00
7730;BME280;3908;52.310;7.230;2022-11-15T03:29:31;51432.63;;;-145.83;100.00
7730;BME280;3908;52.310;7.230;2022-11-15T03:32:23;51442.41;;;-145.83;100.00
7730;BME280;3908;52.310;7.230;2022-11-15T03:35:14;51428.72;;;-145.83;100.00
7730;BME280;3908;52.310;7.230;2022-11-15T03:38:09;51415.00;;;-145.83;100.00
7730;BME280;3908;52.310;7.230;2022-11-15T03:41:05;51383.72;;;-145.83;100.00
7730;BME280;3908;52.310;7.230;2022-11-15T03:43:57;51454.13;;;-145.83;100.00
7730;BME280;3908;52.310;7.230;2022-11-15T03:46:50;51381.75;;;-145.83;100.00
7730;BME280;3908;52.310;7.230;2022-11-15T03:49:44;51487.41;;;-145.83;100.00
7730;BME280;3908;52.310;7.230;2022-11-15T03:52:33;51436.53;;;-145.83;100.00
7730;BME280;3908;52.310;7.230;2022-11-15T03:55:21;51415.00;;;-145.83;100.00
7730;BME280;3908;52.310;7.230;2022-11-15T03:58:10;51407.19;;;-145.83;100.00
7730;BME280;3908;52.310;7.230;2022-11-15T04:00:57;51467.84;;;-145.83;100.00
7730;BME280;3908;52.310;7.230;2022-11-15T04:03:44;51426.75;;;-145.83;100.00
7730;BME280;3908;52.310;7.230;2022-11-15T04:06:32;51428.72;;;-145.83;100.00
7730;BME280;3908;52.310;7.230;2022-11-15T04:09:19;51452.19;;;-145.83;100.00
7730;BME280;3908;52.310;7.230;2022-11-15T04:12:06;51438.50;;;-145.83;100.00
7730;BME280;3908;52.310;7.230;2022-11-15T04:14:54;51420.88;;;-145.83;100.00
7730;BME280;3908;52.310;7.230;2022-11-15T04:17:55;51399.38;;;-145.83;100.00
7730;BME280;3908;52.310;7.230;2022-11-15T04:20:42;51411.09;;;-145.83;100.00
7730;BME280;3908;52.310;7.230;2022-11-15T04:23:46;51422.84;;;-145.83;100.00
7730;BME280;3908;52.310;7.230;2022-11-15T04:26:50;51428.72;;;-145.83;100.00
7730;BME280;3908;52.310;7.230;2022-11-15T04:29:37;51393.50;;;-145.83;100.00
7730;BME280;3908;52.310;7.230;2022-11-15T04:32:26;51430.66;;;-145.83;100.00
7730;BME280;3908;52.310;7.230;2022-11-15T04:35:13;51420.88;;;-145.83;100.00
7730;BME280;3908;52.310;7.230;2022-11-15T04:38:01;51424.78;;;-145.83;100.00
7730;BME280;3908;52.310;7.230;2022-11-15T04:40:48;51452.19;;;-145.83;100.00
7730;BME280;3908;52.310;7.230;2022-11-15T04:43:35;51434.56;;;-145.83;100.00
7730;BME280;3908;52.310;7.230;2022-11-15T04:46:24;51450.22;;;-145.83;100.00
7730;BME280;3908;52.310;7.230;2022-11-15T04:49:12;51405.22;;;-145.83;100.00
7730;BME280;3908;52.310;7.230;2022-11-15T04:51:59;51454.13;;;-145.83;100.00
7730;BME280;3908;52.310;7.230;2022-11-15T04:54:46;51450.22;;;-145.83;100.00
7730;BME280;3908;52.310;7.230;2022-11-15T04:57:33;51450.22;;;-145.83;100.00
7730;BME280;3908;52.310;7.230;2022-11-15T05:00:21;51428.72;;;-145.83;100.00
7730;BME280;3908;52.310;7.230;2022-11-15T05:03:09;51428.72;;;-145.83;100.00
7730;BME280;3908;52.310;7.230;2022-11-15T05:06:14;51475.66;;;-145.83;100.00
7730;BME280;3908;52.310;7.230;2022-11-15T05:09:02;51442.41;;;-145.83;100.00
7730;BME280;3908;52.310;7.230;2022-11-15T05:11:49;51463.91;;;-145.83;100.00
7730;BME280;3908;52.310;7.230;2022-11-15T05:14:36;51413.06;;;-145.83;100.00
7730;BME280;3908;52.310;7.230;2022-11-15T05:17:23;51458.06;;;-145.83;100.00
7730;BME280;3908;52.310;7.230;2022-11-15T05:20:11;51383.72;;;-145.83;100.00
7730;BME280;3908;52.310;7.230;2022-11-15T05:22:59;51422.84;;;-145.83;100.00
7730;BME280;3908;52.310;7.230;2022-11-15T05:25:46;51458.06;;;-145.83;100.00
7730;BME280;3908;52.310;7.230;2022-11-15T05:28:34;51430.66;;;-145.83;100.00
7730;BME280;3908;52.310;7.230;2022-11-15T05:31:23;51444.34;;;-145.83;100.00
7730;BME280;3908;52.310;7.230;2022-11-15T05:34:10;51475.66;;;-145.83;100.00
7730;BME280;3908;52.310;7.230;2022-11-15T05:36:58;51461.97;;;-145.83;100.00
7730;BME280;3908;52.310;7.230;2022-11-15T05:39:47;51448.28;;;-145.83;100.00
7730;BME280;3908;52.310;7.230;2022-11-15T05:42:34;51434.56;;;-145.83;100.00
7730;BME280;3908;52.310;7.230;2022-11-15T05:45:21;51426.75;;;-145.83;100.00
7730;BME280;3908;52.310;7.230;2022-11-15T05:48:08;51460.00;;;-145.83;100.00
7730;BME280;3908;52.310;7.230;2022-11-15T05:50:57;51434.56;;;-145.83;100.00
7730;BME280;3908;52.310;7.230;2022-11-15T05:53:45;51481.53;;;-145.83;100.00
7730;BME280;3908;52.310;7.230;2022-11-15T05:56:34;51450.22;;;-145.83;100.00
7730;BME280;3908;52.310;7.230;2022-11-15T05:59:21;51403.28;;;-145.83;100.00
7730;BME280;3908;52.310;7.230;2022-11-15T06:02:08;51399.38;;;-145.83;100.00
7730;BME280;3908;52.310;7.230;2022-11-15T06:04:55;51467.84;;;-145.83;100.00
7730;BME280;3908;52.310;7.230;2022-11-15T06:07:42;51432.63;;;-145.83;100.00
7730;BME280;3908;52.310;7.230;2022-11-15T06:10:29;51467.84;;;-145.83;100.00
7730;BME280;3908;52.310;7.230;2022-11-15T06:13:18;51452.19;;;-145.83;100.00
7730;BME280;3908;52.310;7.230;2022-11-15T06:16:05;51463.91;;;-145.83;100.00
7730;BME280;3908;52.310;7.230;2022-11-15T06:18:52;51495.22;;;-145.83;100.00
7730;BME280;3908;52.310;7.230;2022-11-15T06:21:39;51430.66;;;-145.83;100.00
7730;BME280;3908;52.310;7.230;2022-11-15T06:24:26;51473.69;;;-145.83;100.00
7730;BME280;3908;52.310;7.230;2022-11-15T06:27:13;51471.75;;;-145.83;100.00
7730;BME280;3908;52.310;7.230;2022-11-15T06:30:02;51442.41;;;-145.83;100.00
7730;BME280;3908;52.310;7.230;2022-11-15T06:32:50;51448.28;;;-145.83;100.00
7730;BME280;3908;52.310;7.230;2022-11-15T06:35:37;51440.44;;;-145.83;100.00
7730;BME280;3908;52.310;7.230;2022-11-15T06:38:24;51493.25;;;-145.83;100.00
7730;BME280;3908;52.310;7.230;2022-11-15T06:41:11;51456.09;;;-145.83;100.00
7730;BME280;3908;52.310;7.230;2022-11-15T06:43:59;51469.78;;;-145.83;100.00
7730;BME280;3908;52.310;7.230;2022-11-15T06:46:47;51436.53;;;-145.83;100.00
7730;BME280;3908;52.310;7.230;2022-11-15T06:49:34;51438.50;;;-145.83;100.00
7730;BME280;3908;52.310;7.230;2022-11-15T06:52:21;51471.75;;;-145.83;100.00
7730;BME280;3908;52.310;7.230;2022-11-15T06:55:08;51415.00;;;-145.83;100.00
7730;BME280;3908;52.310;7.230;2022-11-15T06:57:55;51473.69;;;-145.83;100.00
7730;BME280;3908;52.310;7.230;2022-11-15T07:00:43;51420.88;;;-145.83;100.00
7730;BME280;3908;52.310;7.230;2022-11-15T07:03:31;51460.00;;;-145.83;100.00
7730;BME280;3908;52.310;7.230;2022-11-15T07:06:22;51461.97;;;-145.83;100.00
7730;BME280;3908;52.310;7.230;2022-11-15T07:09:09;51436.53;;;-145.83;100.00
7730;BME280;3908;52.310;7.230;2022-11-15T07:11:57;51491.31;;;-145.83;100.00
7730;BME280;3908;52.310;7.230;2022-11-15T07:14:44;51436.53;;;-145.83;100.00
7730;BME280;3908;52.310;7.230;2022-11-15T07:17:31;51461.97;;;-145.83;100.00
7730;BME280;3908;52.310;7.230;2022-11-15T07:20:20;51448.28;;;-145.83;100.00
7730;BME280;3908;52.310;7.230;2022-11-15T07:23:07;51434.56;;;-145.83;100.00
7730;BME280;3908;52.310;7.230;2022-11-15T07:25:56;51432.63;;;-145.83;100.00
7730;BME280;3908;52.310;7.230;2022-11-15T07:28:43;51450.22;;;-145.83;100.00
7730;BME280;3908;52.310;7.230;2022-11-15T07:31:30;51463.91;;;-145.83;100.00
7730;BME280;3908;52.310;7.230;2022-11-15T07:34:17;51485.44;;;-145.83;100.00
7730;BME280;3908;52.310;7.230;2022-11-15T07:37:05;51434.56;;;-145.83;100.00
7730;BME280;3908;52.310;7.230;2022-11-15T07:39:53;51438.50;;;-145.83;100.00
7730;BME280;3908;52.310;7.230;2022-11-15T07:42:39;51461.97;;;-145.83;100.00
7730;BME280;3908;52.310;7.230;2022-11-15T07:45:43;51477.63;;;-145.83;100.00
7730;BME280;3908;52.310;7.230;2022-11-15T07:48:30;51454.13;;;-145.83;100.00
7730;BME280;3908;52.310;7.230;2022-11-15T07:51:17;51465.88;;;-145.83;100.00
7730;BME280;3908;52.310;7.230;2022-11-15T07:54:06;51416.97;;;-145.83;100.00
7730;BME280;3908;52.310;7.230;2022-11-15T07:56:53;51487.41;;;-145.83;100.00
7730;BME280;3908;52.310;7.230;2022-11-15T07:59:40;51422.84;;;-145.83;100.00
7730;BME280;3908;52.310;7.230;2022-11-15T08:02:28;51450.22;;;-145.83;100.00
7730;BME280;3908;52.310;7.230;2022-11-15T08:05:15;51481.53;;;-145.83;100.00
7730;BME280;3908;52.310;7.230;2022-11-15T08:08:02;51489.34;;;-145.83;100.00
7730;BME280;3908;52.310;7.230;2022-11-15T08:10:51;51475.66;;;-145.83;100.00
7730;BME280;3908;52.310;7.230;2022-11-15T08:13:38;51463.91;;;-145.83;100.00
7730;BME280;3908;52.310;7.230;2022-11-15T08:16:25;51483.47;;;-145.83;100.00
7730;BME280;3908;52.310;7.230;2022-11-15T08:19:13;51473.69;;;-145.83;100.00
7730;BME280;3908;52.310;7.230;2022-11-15T08:22:00;51483.47;;;-145.83;100.00
7730;BME280;3908;52.310;7.230;2022-11-15T08:24:47;51497.19;;;-145.83;100.00
7730;BME280;3908;52.310;7.230;2022-11-15T08:27:35;51473.69;;;-145.83;100.00
7730;BME280;3908;52.310;7.230;2022-11-15T08:30:23;51479.56;;;-145.83;100.00
7730;BME280;3908;52.310;7.230;2022-11-15T08:33:11;51465.88;;;-145.83;100.00
7730;BME280;3908;52.310;7.230;2022-11-15T08:36:00;51489.34;;;-145.83;100.00
7730;BME280;3908;52.310;7.230;2022-11-15T08:38:47;51493.25;;;-145.83;100.00
7730;BME280;3908;52.310;7.230;2022-11-15T08:41:37;51481.53;;;-145.83;100.00
7730;BME280;3908;52.310;7.230;2022-11-15T08:44:26;51491.31;;;-145.83;100.00
7730;BME280;3908;52.310;7.230;2022-11-15T08:47:13;51501.09;;;-145.83;100.00
7730;BME280;3908;52.310;7.230;2022-11-15T08:50:00;51467.84;;;-145.83;100.00
7730;BME280;3908;52.310;7.230;2022-11-15T08:52:47;51460.00;;;-145.83;100.00
7730;BME280;3908;52.310;7.230;2022-11-15T08:55:36;51487.41;;;-145.83;100.00
7730;BME280;3908;52.310;7.230;2022-11-15T08:58:23;51508.91;;;-145.83;100.00
7730;BME280;3908;52.310;7.230;2022-11-15T09:01:17;51460.00;;;-145.83;100.00
7730;BME280;3908;52.310;7.230;2022-11-15T09:04:04;51473.69;;;-145.83;100.00
7730;BME280;3908;52.310;7.230;2022-11-15T09:06:51;51473.69;;;-145.83;100.00
7730;BME280;3908;52.310;7.230;2022-11-15T09:09:39;51506.97;;;-145.83;100.00
7730;BME280;3908;52.310;7.230;2022-11-15T09:12:26;51518.69;;;-145.83;100.00
7730;BME280;3908;52.310;7.230;2022-11-15T09:15:14;51458.06;;;-145.83;100.00
7730;BME280;3908;52.310;7.230;2022-11-15T09:18:02;51479.56;;;-145.83;100.00
7730;BME280;3908;52.310;7.230;2022-11-15T09:20:49;51465.88;;;-145.83;100.00
7730;BME280;3908;52.310;7.230;2022-11-15T09:23:36;51497.19;;;-145.83;100.00
7730;BME280;3908;52.310;7.230;2022-11-15T09:26:24;51506.97;;;-145.83;100.00
7730;BME280;3908;52.310;7.230;2022-11-15T09:29:11;51499.13;;;-145.83;100.00
7730;BME280;3908;52.310;7.230;2022-11-15T09:31:58;51499.13;;;-145.83;100.00
7730;BME280;3908;52.310;7.230;2022-11-15T09:34:48;51450.22;;;-145.83;100.00
7730;BME280;3908;52.310;7.230;2022-11-15T09:37:36;51503.06;;;-145.83;100.00
7730;BME280;3908;52.310;7.230;2022-11-15T09:40:23;51454.13;;;-145.83;100.00
7730;BME280;3908;52.310;7.230;2022-11-15T09:43:28;51506.97;;;-145.83;100.00
7730;BME280;3908;52.310;7.230;2022-11-15T09:46:24;51432.63;;;-145.83;100.00
7730;BME280;3908;52.310;7.230;2022-11-15T09:49:14;51505.00;;;-145.83;100.00
7730;BME280;3908;52.310;7.230;2022-11-15T09:52:03;51497.19;;;-145.83;100.00
7730;BME280;3908;52.310;7.230;2022-11-15T09:54:52;51522.63;;;-145.83;100.00
7730;BME280;3908;52.310;7.230;2022-11-15T09:57:47;51508.91;;;-145.83;100.00
7730;BME280;3908;52.310;7.230;2022-11-15T10:00:38;51503.06;;;-145.83;100.00
7730;BME280;3908;52.310;7.230;2022-11-15T10:03:29;51546.09;;;-145.83;100.00
7730;BME280;3908;52.310;7.230;2022-11-15T10:06:23;51526.53;;;-145.83;100.00
7730;BME280;3908;52.310;7.230;2022-11-15T10:09:15;51528.47;;;-145.83;100.00
7730;BME280;3908;52.310;7.230;2022-11-15T10:12:05;51518.69;;;-145.83;100.00
7730;BME280;3908;52.310;7.230;2022-11-15T10:15:00;51524.56;;;-145.83;100.00
7730;BME280;3908;52.310;7.230;2022-11-15T10:18:06;51497.19;;;-145.83;100.00
7730;BME280;3908;52.310;7.230;2022-11-15T10:20:58;51483.47;;;-145.83;100.00
7730;BME280;3908;52.310;7.230;2022-11-15T10:23:45;51495.22;;;-145.83;100.00
7730;BME280;3908;52.310;7.230;2022-11-15T10:26:35;51506.97;;;-145.83;100.00
7730;BME280;3908;52.310;7.230;2022-11-15T10:29:24;51499.13;;;-145.83;100.00
7730;BME280;3908;52.310;7.230;2022-11-15T10:32:12;51497.19;;;-145.83;99.08
7730;BME280;3908;52.310;7.230;2022-11-15T10:34:59;51475.66;;;-145.83;97.54
7730;BME280;3908;52.310;7.230;2022-11-15T10:38:05;51506.97;;;-145.83;97.43
7730;BME280;3908;52.310;7.230;2022-11-15T10:41:06;51497.19;;;-145.83;98.22
7730;BME280;3908;52.310;7.230;2022-11-15T10:44:08;51446.31;;;-145.83;97.12
7730;BME280;3908;52.310;7.230;2022-11-15T10:47:16;51475.66;;;-145.83;97.06
7730;BME280;3908;52.310;7.230;2022-11-15T10:50:26;51473.69;;;-145.83;97.45
7730;BME280;3908;52.310;7.230;2022-11-15T10:53:18;51505.00;;;-145.83;96.90
7730;BME280;3908;52.310;7.230;2022-11-15T10:56:12;51505.00;;;-145.83;96.01
7730;BME280;3908;52.310;7.230;2022-11-15T10:59:02;51487.41;;;-145.83;96.09
7730;BME280;3908;52.310;7.230;2022-11-15T11:01:50;51489.34;;;-145.83;94.08
7730;BME280;3908;52.310;7.230;2022-11-15T11:04:49;51538.25;;;-145.83;89.77
7730;BME280;3908;52.310;7.230;2022-11-15T11:07:36;51501.09;;;-145.83;90.24
7730;BME280;3908;52.310;7.230;2022-11-15T11:10:23;51526.53;;;-145.83;88.05
7730;BME280;3908;52.310;7.230;2022-11-15T11:13:15;51522.63;;;-145.83;87.81
7730;BME280;3908;52.310;7.230;2022-11-15T11:16:21;51532.41;;;-145.83;85.61
7730;BME280;3908;52.310;7.230;2022-11-15T11:19:34;51477.63;;;-145.83;84.75
7730;BME280;3908;52.310;7.230;2022-11-15T11:22:29;51546.09;;;-145.83;84.96
7730;BME280;3908;52.310;7.230;2022-11-15T11:25:28;51483.47;;;-145.83;86.11
7730;BME280;3908;52.310;7.230;2022-11-15T11:28:30;51485.44;;;-145.83;84.87
7730;BME280;3908;52.310;7.230;2022-11-15T11:31:28;51493.25;;;-145.83;83.46
7730;BME280;3908;52.310;7.230;2022-11-15T11:34:30;51514.78;;;-145.83;84.11
7730;BME280;3908;52.310;7.230;2022-11-15T11:37:25;51506.97;;;-145.83;79.65
7730;BME280;3908;52.310;7.230;2022-11-15T11:40:24;51505.00;;;-145.83;80.25
7730;BME280;3908;52.310;7.230;2022-11-15T11:43:21;51518.69;;;-145.83;80.03
7730;BME280;3908;52.310;7.230;2022-11-15T11:46:28;51495.22;;;-145.83;80.02
7730;BME280;3908;52.310;7.230;2022-11-15T11:49:25;51516.75;;;-145.83;80.07
7730;BME280;3908;52.310;7.230;2022-11-15T11:52:18;51520.66;;;-145.83;77.80
7730;BME280;3908;52.310;7.230;2022-11-15T11:55:14;51514.78;;;-145.83;80.28
7730;BME280;3908;52.310;7.230;2022-11-15T11:58:09;51546.09;;;-145.83;79.74
7730;BME280;3908;52.310;7.230;2022-11-15T12:01:05;51489.34;;;-145.83;78.76
7730;BME280;3908;52.310;7.230;2022-11-15T12:04:03;51503.06;;;-145.83;78.15
7730;BME280;3908;52.310;7.230;2022-11-15T12:06:54;51524.56;;;-145.83;78.71
7730;BME280;3908;52.310;7.230;2022-11-15T12:09:51;51508.91;;;-145.83;76.77
7730;BME280;3908;52.310;7.230;2022-11-15T12:12:45;51506.97;;;-145.83;75.70
7730;BME280;3908;52.310;7.230;2022-11-15T12:15:38;51532.41;;;-145.83;78.46
7730;BME280;3908;52.310;7.230;2022-11-15T12:18:28;51512.84;;;-145.83;77.39
7730;BME280;3908;52.310;7.230;2022-11-15T12:21:22;51514.78;;;-145.83;74.96
7730;BME280;3908;52.310;7.230;2022-11-15T12:24:16;51536.31;;;-145.83;76.94
7730;BME280;3908;52.310;7.230;2022-11-15T12:27:12;51489.34;;;-145.83;76.80
7730;BME280;3908;52.310;7.230;2022-11-15T12:30:04;51510.88;;;-145.83;76.86
7730;BME280;3908;52.310;7.230;2022-11-15T12:32:58;51510.88;;;-145.83;76.10
7730;BME280;3908;52.310;7.230;2022-11-15T12:35:57;51540.22;;;-145.83;74.39
7730;BME280;3908;52.310;7.230;2022-11-15T12:38:55;51512.84;;;-145.83;74.92
7730;BME280;3908;52.310;7.230;2022-11-15T12:45:26;51503.06;;;-145.83;74.75
7730;BME280;3908;52.310;7.230;2022-11-15T12:48:46;51516.75;;;-145.83;72.46
7730;BME280;3908;52.310;7.230;2022-11-15T12:52:05;51473.69;;;-145.83;75.99
7730;BME280;3908;52.310;7.230;2022-11-15T12:54:56;51508.91;;;-145.83;72.55
7730;BME280;3908;52.310;7.230;2022-11-15T12:57:43;51501.09;;;-145.83;73.30
7730;BME280;3908;52.310;7.230;2022-11-15T13:00:39;51516.75;;;-145.83;71.90
7730;BME280;3908;52.310;7.230;2022-11-15T13:03:28;51514.78;;;-145.83;71.85
7730;BME280;3908;52.310;7.230;2022-11-15T13:06:34;51495.22;;;-145.83;71.58
7730;BME280;3908;52.310;7.230;2022-11-15T13:09:52;51475.66;;;-145.83;69.40
7730;BME280;3908;52.310;7.230;2022-11-15T13:12:58;51542.19;;;-145.83;71.30
7730;BME280;3908;52.310;7.230;2022-11-15T13:16:04;51477.63;;;-145.83;68.62
7730;BME280;3908;52.310;7.230;2022-11-15T13:18:53;51497.19;;;-145.83;66.07
7730;BME280;3908;52.310;7.230;2022-11-15T13:21:48;51444.34;;;-145.83;64.56
7730;BME280;3908;52.310;7.230;2022-11-15T13:24:53;51516.75;;;-145.83;66.15
7730;BME280;3908;52.310;7.230;2022-11-15T13:27:41;51493.25;;;-145.83;65.94
7730;BME280;3908;52.310;7.230;2022-11-15T13:30:30;51460.00;;;-145.83;66.10
7730;BME280;3908;52.310;7.230;2022-11-15T13:33:20;51503.06;;;-145.83;64.72
7730;BME280;3908;52.310;7.230;2022-11-15T13:36:13;51491.31;;;-145.83;63.57
7730;BME280;3908;52.310;7.230;2022-11-15T13:39:04;51481.53;;;-145.83;63.52
7730;BME280;3908;52.310;7.230;2022-11-15T13:41:52;51467.84;;;-145.83;63.08
7730;BME280;3908;52.310;7.230;2022-11-15T13:44:39;51479.56;;;-145.83;63.38
7730;BME280;3908;52.310;7.230;2022-11-15T13:47:28;51487.41;;;-145.83;63.14
7730;BME280;3908;52.310;7.230;2022-11-15T13:50:17;51495.22;;;-145.83;62.70
7730;BME280;3908;52.310;7.230;2022-11-15T13:53:06;51450.22;;;-145.83;63.49
7730;BME280;3908;52.310;7.230;2022-11-15T13:55:58;51440.44;;;-145.83;64.10
7730;BME280;3908;52.310;7.230;2022-11-15T13:58:45;51506.97;;;-145.83;64.64
7730;BME280;3908;52.310;7.230;2022-11-15T14:01:42;51442.41;;;-145.83;64.71
7730;BME280;3908;52.310;7.230;2022-11-15T14:04:31;51471.75;;;-145.83;65.77
7730;BME280;3908;52.310;7.230;2022-11-15T14:07:24;51465.88;;;-145.83;66.63
7730;BME280;3908;52.310;7.230;2022-11-15T14:10:30;51483.47;;;-145.83;65.91
7730;BME280;3908;52.310;7.230;2022-11-15T14:13:27;51460.00;;;-145.83;65.10
7730;BME280;3908;52.310;7.230;2022-11-15T14:16:17;51475.66;;;-145.83;66.18
7730;BME280;3908;52.310;7.230;2022-11-15T14:19:05;51483.47;;;-145.83;66.77
7730;BME280;3908;52.310;7.230;2022-11-15T14:22:16;51456.09;;;-145.83;67.04
7730;BME280;3908;52.310;7.230;2022-11-15T14:25:23;51458.06;;;-145.83;66.75
7730;BME280;3908;52.310;7.230;2022-11-15T14:28:29;51456.09;;;-145.83;67.25
7730;BME280;3908;52.310;7.230;2022-11-15T14:31:21;51475.66;;;-145.83;67.90
7730;BME280;3908;52.310;7.230;2022-11-15T14:34:12;51483.47;;;-145.83;68.10
7730;BME280;3908;52.310;7.230;2022-11-15T14:37:02;51458.06;;;-145.83;68.56
7730;BME280;3908;52.310;7.230;2022-11-15T14:39:55;51456.09;;;-145.83;69.16
7730;BME280;3908;52.310;7.230;2022-11-15T14:42:42;51473.69;;;-145.83;69.12
7730;BME280;3908;52.310;7.230;2022-11-15T14:45:32;51477.63;;;-145.83;69.35
7730;BME280;3908;52.310;7.230;2022-11-15T14:48:19;51458.06;;;-145.83;69.45
7730;BME280;3908;52.310;7.230;2022-11-15T14:51:12;51454.13;;;-145.83;69.77
7730;BME280;3908;52.310;7.230;2022-11-15T14:53:59;51479.56;;;-145.83;69.72
7730;BME280;3908;52.310;7.230;2022-11-15T15:07:32;51465.88;;;-145.83;71.26
7730;BME280;3908;52.310;7.230;2022-11-15T15:10:19;51473.69;;;-145.83;71.09
7730;BME280;3908;52.310;7.230;2022-11-15T15:13:12;51469.78;;;-145.83;71.06
7730;BME280;3908;52.310;7.230;2022-11-15T15:16:02;51465.88;;;-145.83;70.58